createdAt,value
2022-11-21T00:00:59.975Z,1.49
2022-11-21T00:03:34.291Z,1.48
2022-11-21T00:06:06.416Z,1.41
2022-11-21T00:08:38.373Z,1.35
2022-11-21T00:11:10.330Z,1.31
2022-11-21T00:13:42.363Z,1.26
2022-11-21T00:16:16.113Z,1.23
2022-11-21T00:18:49.547Z,1.19
2022-11-21T00:21:23.093Z,1.17
2022-11-21T00:23:56.408Z,1.14
2022-11-21T00:26:28.283Z,1.11
2022-11-21T00:29:00.730Z,1.07
2022-11-21T00:31:32.946Z,1.04
2022-11-21T00:34:04.697Z,1.00
2022-11-21T00:36:36.538Z,0.97
2022-11-21T00:39:09.603Z,0.97
2022-11-21T00:41:42.241Z,0.94
2022-11-21T00:44:13.979Z,0.79
2022-11-21T00:46:46.952Z,0.88
2022-11-21T00:49:18.629Z,0.86
2022-11-21T00:51:51.006Z,0.82
2022-11-21T00:54:22.859Z,0.81
2022-11-21T00:56:55.014Z,0.79
2022-11-21T00:59:27.663Z,0.74
2022-11-21T01:02:00.103Z,0.72
2022-11-21T01:04:40.684Z,0.69
2022-11-21T01:07:15.010Z,0.69
2022-11-21T01:09:48.250Z,0.68
2022-11-21T01:12:27.187Z,0.70
2022-11-21T01:15:00.683Z,0.68
2022-11-21T01:17:35.891Z,0.71
2022-11-21T01:20:12.620Z,0.61
2022-11-21T01:22:44.342Z,0.73
2022-11-21T01:25:16.251Z,0.74
2022-11-21T01:27:50.040Z,0.78
2022-11-21T01:30:21.260Z,0.78
2022-11-21T01:32:53.610Z,0.72
2022-11-21T01:35:26.393Z,0.78
2022-11-21T01:37:58.661Z,0.87
2022-11-21T01:40:31.282Z,0.90
2022-11-21T01:43:12.883Z,0.96
2022-11-21T01:46:00.984Z,1.03
2022-11-21T01:48:40.262Z,1.08
2022-11-21T01:51:20.295Z,1.13
2022-11-21T01:54:01.552Z,1.16
2022-11-21T01:56:39.661Z,1.20
2022-11-21T01:59:22.863Z,1.25
2022-11-21T02:01:57.139Z,1.29
2022-11-21T02:04:33.196Z,1.23
2022-11-21T02:07:07.996Z,1.25
2022-11-21T02:09:44.483Z,1.28
2022-11-21T02:12:24.867Z,1.25
2022-11-21T02:15:01.712Z,1.35
2022-11-21T02:17:35.339Z,1.46
2022-11-21T02:31:40.197Z,1.88
2022-11-21T02:34:12.649Z,1.86
2022-11-21T02:36:48.907Z,1.87
2022-11-21T02:39:28.459Z,1.91
2022-11-21T02:42:06.895Z,1.93
2022-11-21T02:44:49.621Z,1.94
2022-11-21T02:47:23.603Z,1.95
2022-11-21T02:50:03.650Z,1.99
2022-11-21T02:52:35.418Z,1.97
2022-11-21T02:55:11.650Z,2.01
2022-11-21T02:57:44.622Z,2.03
2022-11-21T03:00:22.702Z,2.05
2022-11-21T03:02:56.539Z,2.07
2022-11-21T03:05:28.952Z,2.08
2022-11-21T03:08:04.029Z,1.98
2022-11-21T03:10:36.037Z,2.03
2022-11-21T03:13:08.843Z,2.05
2022-11-21T03:15:41.043Z,2.06
2022-11-21T03:18:12.821Z,2.10
2022-11-21T03:20:44.609Z,2.13
2022-11-21T03:23:16.446Z,2.13
2022-11-21T03:25:50.983Z,2.15
2022-11-21T03:28:24.062Z,2.18
2022-11-21T03:30:56.710Z,2.19
2022-11-21T03:33:29.177Z,2.23
2022-11-21T03:36:01.370Z,2.21
2022-11-21T03:38:35.962Z,2.16
2022-11-21T03:41:27.082Z,2.23
2022-11-21T03:43:59.159Z,2.28
2022-11-21T03:46:36.178Z,2.29
2022-11-21T03:49:09.585Z,2.31
2022-11-21T03:51:43.557Z,2.32
2022-11-21T03:54:16.022Z,2.33
2022-11-21T03:56:49.631Z,2.35
2022-11-21T03:59:21.313Z,2.36
2022-11-21T04:01:54.233Z,2.37
2022-11-21T04:04:26.511Z,2.38
2022-11-21T04:06:59.320Z,2.35
2022-11-21T04:09:32.401Z,2.35
2022-11-21T04:12:07.708Z,2.35
2022-11-21T04:14:40.167Z,2.33
2022-11-21T04:17:12.093Z,2.34
2022-11-21T04:19:46.214Z,2.34
2022-11-21T04:22:18.338Z,2.33
2022-11-21T04:24:50.182Z,2.35
2022-11-21T04:27:22.089Z,2.36
2022-11-21T04:29:53.898Z,2.34
2022-11-21T04:32:26.356Z,2.36
2022-11-21T04:34:58.994Z,2.32
2022-11-21T04:37:31.861Z,2.32
2022-11-21T04:40:03.943Z,2.32
2022-11-21T04:42:36.096Z,2.28
2022-11-21T04:45:14.043Z,2.34
2022-11-21T04:47:48.307Z,2.35
2022-11-21T04:50:21.909Z,2.35
2022-11-21T04:52:56.688Z,2.34
2022-11-21T04:55:35.277Z,2.34
2022-11-21T04:58:07.368Z,2.32
2022-11-21T05:00:39.489Z,2.36
2022-11-21T05:03:11.553Z,2.37
2022-11-21T05:05:44.078Z,2.35
2022-11-21T05:08:20.861Z,2.36
2022-11-21T05:11:09.148Z,2.35
2022-11-21T05:13:40.856Z,2.36
2022-11-21T05:16:12.833Z,2.40
2022-11-21T05:18:44.740Z,2.39
2022-11-21T05:21:17.577Z,2.36
2022-11-21T05:23:49.752Z,2.38
2022-11-21T05:26:23.546Z,2.39
2022-11-21T05:28:55.241Z,2.41
2022-11-21T05:31:27.314Z,2.42
2022-11-21T05:33:59.877Z,2.42
2022-11-21T05:36:35.162Z,2.41
2022-11-21T05:39:11.150Z,2.42
2022-11-21T05:41:44.186Z,2.45
2022-11-21T05:44:15.959Z,2.45
2022-11-21T05:46:50.500Z,2.44
2022-11-21T05:49:24.273Z,2.43
2022-11-21T05:51:56.387Z,2.46
2022-11-21T05:54:28.645Z,2.48
2022-11-21T05:57:01.600Z,2.47
2022-11-21T05:59:33.817Z,2.49
2022-11-21T06:02:23.505Z,2.50
2022-11-21T06:04:57.923Z,2.52
2022-11-21T06:07:30.169Z,2.51
2022-11-21T06:10:03.530Z,2.50
2022-11-21T06:12:35.927Z,2.52
2022-11-21T06:15:11.766Z,2.52
2022-11-21T06:17:44.151Z,2.55
2022-11-21T06:20:16.464Z,2.55
2022-11-21T06:22:53.502Z,2.57
2022-11-21T06:25:25.596Z,2.59
2022-11-21T06:27:57.601Z,2.46
2022-11-21T06:30:30.049Z,2.62
2022-11-21T06:33:04.291Z,2.63
2022-11-21T06:35:42.176Z,2.64
2022-11-21T06:38:22.002Z,2.64
2022-11-21T06:40:56.162Z,2.67
2022-11-21T06:43:29.989Z,2.67
2022-11-21T06:46:04.877Z,2.65
2022-11-21T06:48:40.532Z,2.67
2022-11-21T06:51:22.967Z,2.69
2022-11-21T06:53:58.223Z,2.60
2022-11-21T06:56:34.007Z,2.70
2022-11-21T06:59:09.082Z,2.71
2022-11-21T07:01:41.017Z,2.73
2022-11-21T07:04:15.138Z,2.68
2022-11-21T07:06:47.286Z,2.68
2022-11-21T07:09:32.740Z,2.67
2022-11-21T07:12:25.560Z,2.68
2022-11-21T07:14:57.358Z,2.70
2022-11-21T07:17:29.528Z,2.64
2022-11-21T07:20:01.280Z,2.65
2022-11-21T07:22:33.341Z,2.65
2022-11-21T07:25:08.094Z,2.69
2022-11-21T07:27:38.482Z,2.62
2022-11-21T07:30:18.723Z,2.65
2022-11-21T07:32:56.078Z,2.69
2022-11-21T07:35:29.702Z,2.70
2022-11-21T07:38:04.055Z,2.67
2022-11-21T07:40:36.140Z,2.57
2022-11-21T07:43:11.017Z,2.59
2022-11-21T07:45:43.959Z,2.69
2022-11-21T07:48:17.035Z,2.71
2022-11-21T07:50:49.368Z,2.72
2022-11-21T07:53:21.150Z,2.69
2022-11-21T07:55:55.048Z,2.67
2022-11-21T07:58:30.796Z,2.72
2022-11-21T08:01:06.508Z,2.73
2022-11-21T08:03:38.711Z,2.66
2022-11-21T08:06:14.069Z,2.77
2022-11-21T08:08:45.756Z,2.76
2022-11-21T08:11:17.961Z,2.76
2022-11-21T08:13:50.995Z,2.80
2022-11-21T08:16:28.989Z,2.80
2022-11-21T08:19:01.014Z,2.76
2022-11-21T08:21:32.958Z,2.76
2022-11-21T08:24:04.990Z,2.80
2022-11-21T08:26:36.980Z,2.82
2022-11-21T08:29:08.838Z,2.87
2022-11-21T08:31:41.322Z,2.81
2022-11-21T08:34:14.772Z,2.84
2022-11-21T08:36:48.100Z,2.79
2022-11-21T08:39:20.241Z,2.84
2022-11-21T08:42:04.745Z,2.83
2022-11-21T08:44:37.958Z,2.84
2022-11-21T08:47:11.063Z,2.92
2022-11-21T08:49:43.630Z,2.95
2022-11-21T08:52:18.331Z,2.98
2022-11-21T08:54:48.606Z,2.98
2022-11-21T08:57:20.630Z,2.98
2022-11-21T08:59:52.589Z,3.00
2022-11-21T09:02:24.971Z,3.04
2022-11-21T09:04:56.753Z,3.06
2022-11-21T09:07:28.808Z,3.07
2022-11-21T09:10:01.848Z,3.11
2022-11-21T09:12:34.971Z,3.10
2022-11-21T09:15:29.411Z,3.14
2022-11-21T09:18:05.487Z,3.21
2022-11-21T09:20:42.428Z,3.22
2022-11-21T09:23:18.199Z,3.27
2022-11-21T09:25:50.078Z,3.30
2022-11-21T09:28:22.706Z,3.30
2022-11-21T09:30:56.430Z,3.32
2022-11-21T09:33:28.167Z,3.35
2022-11-21T09:36:02.630Z,3.37
2022-11-21T09:38:34.634Z,3.34
2022-11-21T09:41:34.730Z,3.31
2022-11-21T09:44:18.820Z,3.36
2022-11-21T09:46:57.690Z,3.41
2022-11-21T09:49:33.837Z,3.47
2022-11-21T09:52:06.719Z,3.47
2022-11-21T09:54:50.423Z,3.50
2022-11-21T09:57:27.523Z,3.51
2022-11-21T10:00:05.773Z,3.52
2022-11-21T10:02:44.677Z,3.51
2022-11-21T10:05:17.691Z,3.55
2022-11-21T10:07:53.697Z,3.56
2022-11-21T10:10:50.815Z,3.59
2022-11-21T10:13:39.670Z,3.62
2022-11-21T10:16:21.084Z,3.66
2022-11-21T10:19:23.021Z,3.69
2022-11-21T10:22:19.004Z,3.70
2022-11-21T10:24:58.980Z,3.72
2022-11-21T10:27:39.427Z,3.77
2022-11-21T10:30:19.560Z,3.76
2022-11-21T10:33:00.927Z,3.79
2022-11-21T10:35:41.483Z,3.79
2022-11-21T10:38:22.632Z,3.79
2022-11-21T10:41:03.192Z,3.76
2022-11-21T10:44:01.258Z,3.78
2022-11-21T10:46:33.637Z,3.79
2022-11-21T10:49:09.670Z,3.82
2022-11-21T10:51:52.173Z,3.83
2022-11-21T10:54:37.197Z,3.89
2022-11-21T10:57:15.003Z,3.94
2022-11-21T11:00:02.036Z,3.98
2022-11-21T11:02:33.841Z,4.03
2022-11-21T11:05:22.423Z,4.08
2022-11-21T11:08:06.598Z,4.14
2022-11-21T11:10:43.210Z,4.18
2022-11-21T11:13:50.631Z,4.12
2022-11-21T11:16:26.162Z,4.19
2022-11-21T11:19:01.983Z,4.21
2022-11-21T11:21:46.113Z,4.16
2022-11-21T11:24:28.638Z,4.13
2022-11-21T11:27:04.187Z,4.13
2022-11-21T11:29:50.826Z,4.11
2022-11-21T11:32:25.299Z,4.10
2022-11-21T11:35:11.366Z,4.07
2022-11-21T11:37:45.148Z,4.11
2022-11-21T11:40:29.823Z,4.10
2022-11-21T11:43:41.411Z,4.15
2022-11-21T11:46:53.592Z,4.13
2022-11-21T11:49:59.473Z,4.13
2022-11-21T11:52:41.592Z,4.14
2022-11-21T11:55:21.581Z,4.13
2022-11-21T11:57:58.208Z,4.14
2022-11-21T12:00:40.812Z,4.14
2022-11-21T12:03:20.169Z,4.13
2022-11-21T12:06:14.347Z,4.14
2022-11-21T12:08:55.595Z,4.13
2022-11-21T12:11:53.897Z,4.16
2022-11-21T12:15:03.691Z,4.16
2022-11-21T12:17:44.548Z,4.15
2022-11-21T12:20:22.238Z,4.15
2022-11-21T12:22:56.460Z,4.09
2022-11-21T12:25:34.139Z,4.12
2022-11-21T12:28:18.294Z,4.09
2022-11-21T12:31:04.201Z,3.98
2022-11-21T12:33:44.624Z,4.02
2022-11-21T12:36:33.778Z,4.04
2022-11-21T12:39:29.271Z,3.95
2022-11-21T12:42:30.687Z,3.92
2022-11-21T12:45:27.422Z,3.92
2022-11-21T12:48:39.436Z,3.85
2022-11-21T12:52:02.846Z,3.80
2022-11-21T12:55:03.452Z,3.80
2022-11-21T12:57:49.400Z,3.77
2022-11-21T13:00:31.411Z,3.76
2022-11-21T13:03:48.167Z,3.75
2022-11-21T13:06:27.475Z,3.63
2022-11-21T13:09:05.361Z,3.59
2022-11-21T13:12:01.533Z,3.62
2022-11-21T13:14:48.788Z,3.55
2022-11-21T13:17:37.534Z,3.58
2022-11-21T13:20:20.788Z,3.47
2022-11-21T13:23:00.846Z,3.43
2022-11-21T13:25:50.359Z,3.44
2022-11-21T13:28:39.627Z,3.41
2022-11-21T13:31:45.184Z,3.26
2022-11-21T13:34:38.934Z,3.30
2022-11-21T13:38:01.101Z,3.32
2022-11-21T13:41:05.327Z,3.32
2022-11-21T13:43:37.946Z,3.37
2022-11-21T13:46:10.568Z,3.46
2022-11-21T13:49:15.173Z,3.39
2022-11-21T13:51:54.330Z,3.44
2022-11-21T13:54:48.708Z,3.46
2022-11-21T13:58:03.999Z,3.36
2022-11-21T14:00:51.041Z,3.43
2022-11-21T14:03:56.034Z,3.44
2022-11-21T14:06:43.859Z,3.41
2022-11-21T14:09:25.275Z,3.30
2022-11-21T14:12:03.171Z,3.38
2022-11-21T14:14:41.588Z,3.38
2022-11-21T14:17:30.076Z,3.32
2022-11-21T14:20:11.428Z,3.30
2022-11-21T14:22:49.372Z,3.31
2022-11-21T14:25:28.078Z,3.28
2022-11-21T14:28:02.665Z,3.32
2022-11-21T14:30:39.158Z,3.32
2022-11-21T14:33:50.005Z,3.29
2022-11-21T14:36:25.139Z,3.18
2022-11-21T14:39:34.847Z,3.13
2022-11-21T14:41:53.961Z,3.03
2022-11-21T14:44:26.966Z,3.03
2022-11-21T14:47:18.535Z,3.06
2022-11-21T14:49:55.348Z,3.08
2022-11-21T14:52:32.272Z,3.12
2022-11-21T14:55:28.978Z,3.12
2022-11-21T14:58:01.249Z,3.00
2022-11-21T15:00:58.523Z,3.11
2022-11-21T15:03:26.243Z,3.10
2022-11-21T15:06:07.936Z,3.20
2022-11-21T15:09:33.330Z,3.25
2022-11-21T15:11:39.233Z,3.16
2022-11-21T15:14:25.432Z,3.13
2022-11-21T15:16:59.722Z,3.14
2022-11-21T15:19:38.062Z,3.07
2022-11-21T15:22:25.199Z,3.07
2022-11-21T15:25:12.852Z,3.14
2022-11-21T15:27:45.321Z,3.13
2022-11-21T15:30:30.823Z,3.05
2022-11-21T15:33:11.591Z,2.94
2022-11-21T15:35:56.824Z,3.06
2022-11-21T15:38:44.918Z,3.04
2022-11-21T15:41:33.697Z,2.96
2022-11-21T15:44:24.109Z,2.93
2022-11-21T15:46:56.082Z,2.96
2022-11-21T15:49:34.856Z,2.95
2022-11-21T15:52:15.654Z,2.96
2022-11-21T15:54:48.886Z,2.85
2022-11-21T15:57:22.299Z,2.96
2022-11-21T15:59:56.501Z,2.96
2022-11-21T16:02:49.210Z,2.97
2022-11-21T16:05:22.046Z,2.93
2022-11-21T16:07:54.512Z,2.97
2022-11-21T16:10:28.114Z,2.99
2022-11-21T16:13:01.143Z,2.92
2022-11-21T16:15:33.551Z,2.89
2022-11-21T16:18:05.428Z,2.84
2022-11-21T16:20:38.714Z,2.87
2022-11-21T16:23:12.929Z,2.87
2022-11-21T16:25:55.962Z,2.88
2022-11-21T16:28:28.092Z,2.85
2022-11-21T16:31:03.002Z,2.88
2022-11-21T16:33:40.498Z,2.90
2022-11-21T16:36:16.437Z,2.92
2022-11-21T16:38:48.957Z,2.95
2022-11-21T16:41:23.708Z,3.01
2022-11-21T16:43:57.188Z,3.04
2022-11-21T16:46:30.454Z,3.05
2022-11-21T16:49:05.371Z,3.06
2022-11-21T16:51:36.489Z,3.03
2022-11-21T16:54:09.992Z,2.98
2022-11-21T16:56:41.934Z,3.01
2022-11-21T16:59:16.188Z,3.01
2022-11-21T17:01:48.917Z,2.99
2022-11-21T17:04:21.764Z,2.97
2022-11-21T17:06:54.730Z,2.99
2022-11-21T17:09:27.893Z,2.88
2022-11-21T17:12:02.093Z,3.03
2022-11-21T17:14:34.089Z,3.01
2022-11-21T17:17:07.536Z,3.03
2022-11-21T17:19:39.475Z,3.07
2022-11-21T17:22:12.139Z,3.08
2022-11-21T17:24:44.346Z,3.10
2022-11-21T17:27:16.442Z,3.12
2022-11-21T17:29:48.588Z,3.16
2022-11-21T17:32:20.884Z,3.16
2022-11-21T17:34:53.746Z,3.07
2022-11-21T17:37:25.999Z,3.19
2022-11-21T17:39:57.796Z,3.15
2022-11-21T17:42:30.092Z,3.23
2022-11-21T17:45:02.440Z,3.11
2022-11-21T17:47:37.569Z,3.22
2022-11-21T17:50:11.646Z,3.15
2022-11-21T17:52:47.035Z,3.20
2022-11-21T17:55:21.342Z,3.18
2022-11-21T17:57:53.226Z,3.21
2022-11-21T18:00:27.088Z,3.20
2022-11-21T18:03:00.364Z,3.17
2022-11-21T18:05:35.049Z,3.20
2022-11-21T18:08:07.832Z,3.24
2022-11-21T18:10:43.992Z,3.21
2022-11-21T18:13:20.305Z,3.21
2022-11-21T18:15:53.816Z,3.20
2022-11-21T18:18:28.239Z,3.20
2022-11-21T18:21:06.813Z,3.27
2022-11-21T18:23:45.336Z,3.29
2022-11-21T18:26:23.418Z,3.26
2022-11-21T18:29:34.430Z,3.28
2022-11-21T18:31:53.697Z,3.37
2022-11-21T18:34:26.207Z,3.34
2022-11-21T18:37:00.039Z,3.34
2022-11-21T18:39:33.311Z,3.34
2022-11-21T18:42:07.168Z,3.33
2022-11-21T18:44:39.262Z,3.33
2022-11-21T18:47:20.439Z,3.34
2022-11-21T18:49:54.177Z,3.37
2022-11-21T18:52:27.601Z,3.33
2022-11-21T18:55:01.519Z,3.30
2022-11-21T18:57:33.626Z,3.28
2022-11-21T19:00:09.451Z,3.27
2022-11-21T19:02:41.605Z,3.22
2022-11-21T19:05:20.351Z,3.23
2022-11-21T19:07:54.810Z,3.21
2022-11-21T19:10:42.618Z,3.26
2022-11-21T19:13:17.528Z,3.30
2022-11-21T19:15:50.283Z,3.34
2022-11-21T19:18:22.392Z,3.37
2022-11-21T19:20:54.980Z,3.34
2022-11-21T19:23:31.378Z,3.29
2022-11-21T19:26:04.054Z,3.30
2022-11-21T19:28:38.595Z,3.24
2022-11-21T19:31:14.100Z,3.27
2022-11-21T19:33:48.500Z,3.30
2022-11-21T19:36:22.737Z,3.30
2022-11-21T19:38:55.174Z,3.36
2022-11-21T19:41:31.053Z,3.35
2022-11-21T19:44:04.323Z,3.33
2022-11-21T19:46:40.404Z,3.32
2022-11-21T19:49:14.613Z,3.27
2022-11-21T19:51:46.887Z,3.10
2022-11-21T19:54:20.484Z,3.06
2022-11-21T19:56:53.838Z,3.08
2022-11-21T19:59:28.778Z,2.97
2022-11-21T20:02:02.904Z,2.94
2022-11-21T20:04:36.386Z,2.95
2022-11-21T20:07:08.801Z,2.97
2022-11-21T20:09:44.926Z,2.94
2022-11-21T20:12:17.687Z,2.94
2022-11-21T20:14:50.212Z,2.92
2022-11-21T20:17:25.668Z,2.85
2022-11-21T20:20:00.786Z,2.86
2022-11-21T20:22:34.288Z,2.85
2022-11-21T20:25:11.455Z,2.88
2022-11-21T20:27:43.948Z,2.92
2022-11-21T20:30:17.855Z,2.94
2022-11-21T20:32:50.914Z,2.90
2022-11-21T20:35:23.656Z,3.00
2022-11-21T20:37:57.429Z,2.98
2022-11-21T20:40:30.339Z,2.95
2022-11-21T20:43:04.360Z,2.98
2022-11-21T20:46:07.689Z,2.99
2022-11-21T20:48:29.478Z,2.95
2022-11-21T20:52:09.570Z,2.97
2022-11-21T20:54:01.645Z,2.92
2022-11-21T20:56:39.399Z,2.94
2022-11-21T20:59:14.682Z,2.96
2022-11-21T21:01:48.424Z,2.94
2022-11-21T21:04:20.475Z,2.94
2022-11-21T21:06:52.557Z,2.83
2022-11-21T21:09:24.519Z,2.99
2022-11-21T21:11:57.806Z,3.02
2022-11-21T21:14:31.515Z,3.00
2022-11-21T21:17:04.123Z,2.96
2022-11-21T21:19:37.251Z,2.99
2022-11-21T21:22:10.895Z,3.01
2022-11-21T21:24:43.087Z,3.00
2022-11-21T21:27:15.040Z,2.97
2022-11-21T21:29:47.134Z,2.98
2022-11-21T21:32:19.262Z,2.95
2022-11-21T21:34:51.126Z,2.96
2022-11-21T21:37:23.354Z,2.99
2022-11-21T21:39:55.875Z,3.00
2022-11-21T21:42:29.106Z,3.01
2022-11-21T21:45:02.723Z,3.00
2022-11-21T21:47:34.760Z,2.98
2022-11-21T21:50:15.606Z,2.99
2022-11-21T21:52:49.085Z,3.00
2022-11-21T21:55:21.050Z,3.02
2022-11-21T21:57:53.307Z,3.03
2022-11-21T22:00:25.335Z,3.05
2022-11-21T22:02:57.070Z,3.07
2022-11-21T22:05:28.897Z,3.08
2022-11-21T22:08:02.789Z,3.09
2022-11-21T22:10:34.707Z,3.11
2022-11-21T22:13:08.462Z,3.11
2022-11-21T22:15:40.975Z,3.12
2022-11-21T22:18:13.159Z,3.11
2022-11-21T22:20:45.951Z,3.08
2022-11-21T22:23:18.111Z,3.03
2022-11-21T22:25:56.072Z,3.13
2022-11-21T22:28:35.640Z,3.08
2022-11-21T22:31:10.696Z,3.05
2022-11-21T22:33:45.034Z,2.99
2022-11-21T22:36:19.439Z,2.97
2022-11-21T22:38:55.157Z,3.01
2022-11-21T22:41:28.716Z,3.00
2022-11-21T22:44:03.355Z,2.93
2022-11-21T22:46:36.307Z,2.92
2022-11-21T22:49:08.737Z,2.93
2022-11-21T22:51:41.113Z,2.84
2022-11-21T22:54:14.999Z,2.94
2022-11-21T22:56:46.777Z,2.93
2022-11-21T22:59:18.954Z,2.87
2022-11-21T23:01:50.868Z,2.87
2022-11-21T23:04:23.365Z,2.86
2022-11-21T23:06:55.246Z,2.86
2022-11-21T23:09:44.906Z,2.91
2022-11-21T23:12:17.024Z,2.84
2022-11-21T23:14:49.692Z,2.85
2022-11-21T23:17:21.926Z,2.87
2022-11-21T23:19:54.537Z,2.91
2022-11-21T23:22:26.326Z,2.89
2022-11-21T23:24:58.938Z,2.85
2022-11-21T23:27:30.797Z,2.87
2022-11-21T23:30:06.319Z,2.82
2022-11-21T23:32:38.391Z,2.78
2022-11-21T23:35:11.744Z,2.89
2022-11-21T23:37:43.731Z,2.82
2022-11-21T23:40:21.429Z,2.87
2022-11-21T23:42:55.802Z,2.92
2022-11-21T23:45:27.982Z,2.94
2022-11-21T23:48:00.383Z,2.96
2022-11-21T23:50:33.094Z,3.02
2022-11-21T23:53:07.533Z,2.98
2022-11-21T23:55:41.364Z,2.99
2022-11-21T23:58:13.946Z,3.02
